sensor_id;sensor_type;location;lat;lon;timestamp;pressure;altitude;pressure_sealevel;temperature;humidity
13068;BME280;6600;51.362;6.686;2024-01-30T00:01:06;102315.38;;;10.46;94.16
13068;BME280;6600;51.362;6.686;2024-01-30T00:03:31;102310.97;;;10.53;93.87
13068;BME280;6600;51.362;6.686;2024-01-30T00:05:56;102306.94;;;10.57;93.58
13068;BME280;6600;51.362;6.686;2024-01-30T00:08:22;102314.44;;;10.62;93.70
13068;BME280;6600;51.362;6.686;2024-01-30T00:10:47;102305.38;;;10.40;93.83
13068;BME280;6600;51.362;6.686;2024-01-30T00:13:13;102312.69;;;10.46;94.11
13068;BME280;6600;51.362;6.686;2024-01-30T00:15:39;102313.69;;;10.45;93.74
13068;BME280;6600;51.362;6.686;2024-01-30T00:18:04;102309.31;;;10.52;93.93
13068;BME280;6600;51.362;6.686;2024-01-30T00:20:29;102310.03;;;10.46;93.66
13068;BME280;6600;51.362;6.686;2024-01-30T00:22:55;102302.91;;;10.61;93.23
13068;BME280;6600;51.362;6.686;2024-01-30T00:25:20;102300.13;;;10.47;93.70
13068;BME280;6600;51.362;6.686;2024-01-30T00:27:45;102310.63;;;10.56;93.44
13068;BME280;6600;51.362;6.686;2024-01-30T00:30:11;102302.53;;;10.64;92.98
13068;BME280;6600;51.362;6.686;2024-01-30T00:32:37;102304.88;;;10.68;93.00
13068;BME280;6600;51.362;6.686;2024-01-30T00:35:02;102308.56;;;10.67;92.77
13068;BME280;6600;51.362;6.686;2024-01-30T00:37:27;102304.66;;;10.46;93.15
13068;BME280;6600;51.362;6.686;2024-01-30T00:39:53;102297.38;;;10.55;92.91
13068;BME280;6600;51.362;6.686;2024-01-30T00:42:18;102298.94;;;10.49;93.01
13068;BME280;6600;51.362;6.686;2024-01-30T00:44:44;102296.22;;;10.57;92.27
13068;BME280;6600;51.362;6.686;2024-01-30T00:47:10;102296.59;;;10.54;92.75
13068;BME280;6600;51.362;6.686;2024-01-30T00:49:36;102298.66;;;10.67;92.71
13068;BME280;6600;51.362;6.686;2024-01-30T00:52:01;102291.91;;;10.48;93.04
13068;BME280;6600;51.362;6.686;2024-01-30T00:54:26;102305.84;;;10.44;92.91
13068;BME280;6600;51.362;6.686;2024-01-30T00:56:52;102293.59;;;10.49;92.83
13068;BME280;6600;51.362;6.686;2024-01-30T00:59:17;102302.97;;;10.45;93.09
13068;BME280;6600;51.362;6.686;2024-01-30T01:01:42;102306.69;;;10.44;93.00
13068;BME280;6600;51.362;6.686;2024-01-30T01:04:07;102298.91;;;10.57;92.50
13068;BME280;6600;51.362;6.686;2024-01-30T01:06:33;102305.72;;;10.37;92.99
13068;BME280;6600;51.362;6.686;2024-01-30T01:08:58;102308.41;;;10.37;93.25
13068;BME280;6600;51.362;6.686;2024-01-30T01:11:23;102304.88;;;10.37;93.07
13068;BME280;6600;51.362;6.686;2024-01-30T01:13:49;102310.06;;;10.38;92.80
13068;BME280;6600;51.362;6.686;2024-01-30T01:16:14;102306.41;;;10.31;93.46
13068;BME280;6600;51.362;6.686;2024-01-30T01:18:39;102308.41;;;10.37;93.52
13068;BME280;6600;51.362;6.686;2024-01-30T01:21:05;102300.00;;;10.40;93.02
13068;BME280;6600;51.362;6.686;2024-01-30T01:23:31;102305.53;;;10.39;92.85
13068;BME280;6600;51.362;6.686;2024-01-30T01:25:56;102312.22;;;10.43;92.75
13068;BME280;6600;51.362;6.686;2024-01-30T01:28:21;102306.22;;;10.41;92.75
13068;BME280;6600;51.362;6.686;2024-01-30T01:30:47;102303.19;;;10.36;92.90
13068;BME280;6600;51.362;6.686;2024-01-30T01:33:12;102304.06;;;10.28;92.65
13068;BME280;6600;51.362;6.686;2024-01-30T01:35:39;102294.28;;;10.43;92.82
13068;BME280;6600;51.362;6.686;2024-01-30T01:38:05;102292.75;;;10.49;93.13
13068;BME280;6600;51.362;6.686;2024-01-30T01:40:30;102293.94;;;10.46;92.11
13068;BME280;6600;51.362;6.686;2024-01-30T01:42:56;102291.91;;;10.48;92.22
13068;BME280;6600;51.362;6.686;2024-01-30T01:45:21;102296.25;;;10.49;92.20
13068;BME280;6600;51.362;6.686;2024-01-30T01:47:49;102294.28;;;10.43;92.25
13068;BME280;6600;51.362;6.686;2024-01-30T01:50:16;102304.41;;;10.33;92.78
13068;BME280;6600;51.362;6.686;2024-01-30T01:52:45;102292.97;;;10.39;92.77
13068;BME280;6600;51.362;6.686;2024-01-30T01:55:12;102298.03;;;10.34;92.43
13068;BME280;6600;51.362;6.686;2024-01-30T01:57:38;102295.38;;;10.26;92.76
13068;BME280;6600;51.362;6.686;2024-01-30T02:00:04;102292.94;;;10.17;93.16
13068;BME280;6600;51.362;6.686;2024-01-30T02:02:30;102284.69;;;10.18;93.28
13068;BME280;6600;51.362;6.686;2024-01-30T02:04:57;102287.88;;;10.22;93.32
13068;BME280;6600;51.362;6.686;2024-01-30T02:07:23;102283.69;;;10.11;93.25
13068;BME280;6600;51.362;6.686;2024-01-30T02:09:49;102280.19;;;10.10;93.62
13068;BME280;6600;51.362;6.686;2024-01-30T02:12:14;102275.03;;;10.01;93.85
13068;BME280;6600;51.362;6.686;2024-01-30T02:14:46;102272.00;;;10.20;93.57
13068;BME280;6600;51.362;6.686;2024-01-30T02:17:12;102277.22;;;9.97;93.90
13068;BME280;6600;51.362;6.686;2024-01-30T02:19:37;102273.56;;;9.98;94.09
13068;BME280;6600;51.362;6.686;2024-01-30T02:22:03;102264.66;;;10.06;94.05
13068;BME280;6600;51.362;6.686;2024-01-30T02:24:29;102265.66;;;10.05;93.78
13068;BME280;6600;51.362;6.686;2024-01-30T02:26:54;102270.00;;;10.06;93.71
13068;BME280;6600;51.362;6.686;2024-01-30T02:29:20;102263.63;;;10.07;93.66
13068;BME280;6600;51.362;6.686;2024-01-30T02:31:45;102259.78;;;10.09;93.76
13068;BME280;6600;51.362;6.686;2024-01-30T02:34:11;102260.94;;;10.07;93.99
13068;BME280;6600;51.362;6.686;2024-01-30T02:36:36;102257.94;;;10.10;93.65
13068;BME280;6600;51.362;6.686;2024-01-30T02:39:01;102254.28;;;10.03;93.84
13068;BME280;6600;51.362;6.686;2024-01-30T02:41:27;102255.25;;;10.10;92.92
13068;BME280;6600;51.362;6.686;2024-01-30T02:43:52;102257.06;;;10.18;93.28
13068;BME280;6600;51.362;6.686;2024-01-30T02:46:17;102255.94;;;10.04;93.50
13068;BME280;6600;51.362;6.686;2024-01-30T02:48:43;102247.25;;;10.02;93.95
13068;BME280;6600;51.362;6.686;2024-01-30T02:51:08;102250.59;;;10.04;94.57
13068;BME280;6600;51.362;6.686;2024-01-30T02:53:33;102244.19;;;10.13;93.42
13068;BME280;6600;51.362;6.686;2024-01-30T02:55:59;102252.91;;;10.15;93.48
13068;BME280;6600;51.362;6.686;2024-01-30T02:58:24;102246.19;;;10.11;93.22
13068;BME280;6600;51.362;6.686;2024-01-30T03:00:49;102240.19;;;10.09;93.31
13068;BME280;6600;51.362;6.686;2024-01-30T03:03:14;102242.03;;;10.08;93.67
13068;BME280;6600;51.362;6.686;2024-01-30T03:05:40;102234.38;;;9.97;93.93
13068;BME280;6600;51.362;6.686;2024-01-30T03:08:05;102241.34;;;10.14;93.73
13068;BME280;6600;51.362;6.686;2024-01-30T03:10:30;102234.16;;;10.07;93.89
13068;BME280;6600;51.362;6.686;2024-01-30T03:12:56;102229.50;;;10.01;93.90
13068;BME280;6600;51.362;6.686;2024-01-30T03:15:21;102233.16;;;10.16;93.48
13068;BME280;6600;51.362;6.686;2024-01-30T03:17:46;102231.44;;;10.23;93.07
13068;BME280;6600;51.362;6.686;2024-01-30T03:20:12;102240.13;;;10.25;93.21
13068;BME280;6600;51.362;6.686;2024-01-30T03:22:37;102246.34;;;10.18;93.18
13068;BME280;6600;51.362;6.686;2024-01-30T03:25:02;102232.44;;;10.22;92.97
13068;BME280;6600;51.362;6.686;2024-01-30T03:27:28;102233.03;;;10.01;93.63
13068;BME280;6600;51.362;6.686;2024-01-30T03:29:54;102237.16;;;10.12;93.32
13068;BME280;6600;51.362;6.686;2024-01-30T03:32:19;102227.66;;;10.09;93.54
13068;BME280;6600;51.362;6.686;2024-01-30T03:34:44;102229.81;;;10.14;93.52
13068;BME280;6600;51.362;6.686;2024-01-30T03:37:09;102228.47;;;10.10;93.44
13068;BME280;6600;51.362;6.686;2024-01-30T03:39:35;102222.66;;;10.06;94.05
13068;BME280;6600;51.362;6.686;2024-01-30T03:42:01;102227.44;;;10.11;93.66
13068;BME280;6600;51.362;6.686;2024-01-30T03:44:27;102230.13;;;10.11;93.41
13068;BME280;6600;51.362;6.686;2024-01-30T03:46:52;102230.47;;;10.08;93.60
13068;BME280;6600;51.362;6.686;2024-01-30T03:49:17;102222.69;;;9.90;93.79
13068;BME280;6600;51.362;6.686;2024-01-30T03:51:43;102230.84;;;10.05;93.71
13068;BME280;6600;51.362;6.686;2024-01-30T03:54:08;102231.53;;;9.99;93.83
13068;BME280;6600;51.362;6.686;2024-01-30T03:56:33;102227.50;;;10.03;93.73
13068;BME280;6600;51.362;6.686;2024-01-30T03:58:58;102221.88;;;9.90;93.90
13068;BME280;6600;51.362;6.686;2024-01-30T04:01:25;102223.53;;;9.91;93.99
13068;BME280;6600;51.362;6.686;2024-01-30T04:03:51;102211.38;;;9.80;94.22
13068;BME280;6600;51.362;6.686;2024-01-30T04:06:16;102216.50;;;9.90;94.31
13068;BME280;6600;51.362;6.686;2024-01-30T04:08:41;102212.84;;;9.91;94.11
13068;BME280;6600;51.362;6.686;2024-01-30T04:11:07;102204.78;;;9.91;94.15
13068;BME280;6600;51.362;6.686;2024-01-30T04:13:33;102204.81;;;9.83;94.20
13068;BME280;6600;51.362;6.686;2024-01-30T04:16:02;102202.94;;;9.99;94.05
13068;BME280;6600;51.362;6.686;2024-01-30T04:18:28;102202.19;;;9.75;94.83
13068;BME280;6600;51.362;6.686;2024-01-30T04:20:53;102199.81;;;9.80;94.89
13068;BME280;6600;51.362;6.686;2024-01-30T04:23:19;102196.13;;;9.89;94.41
13068;BME280;6600;51.362;6.686;2024-01-30T04:25:44;102200.78;;;9.87;94.52
13068;BME280;6600;51.362;6.686;2024-01-30T04:28:10;102197.81;;;9.82;94.85
13068;BME280;6600;51.362;6.686;2024-01-30T04:30:37;102200.19;;;9.77;94.79
13068;BME280;6600;51.362;6.686;2024-01-30T04:33:03;102197.47;;;9.85;94.61
13068;BME280;6600;51.362;6.686;2024-01-30T04:35:28;102200.16;;;9.85;94.14
13068;BME280;6600;51.362;6.686;2024-01-30T04:37:53;102202.94;;;9.99;94.14
13068;BME280;6600;51.362;6.686;2024-01-30T04:40:20;102203.47;;;9.87;94.07
13068;BME280;6600;51.362;6.686;2024-01-30T04:42:45;102205.78;;;9.90;94.49
13068;BME280;6600;51.362;6.686;2024-01-30T04:45:11;102212.81;;;9.99;94.16
13068;BME280;6600;51.362;6.686;2024-01-30T04:47:37;102211.28;;;9.96;94.01
13068;BME280;6600;51.362;6.686;2024-01-30T04:50:02;102206.81;;;9.89;93.97
13068;BME280;6600;51.362;6.686;2024-01-30T04:52:29;102212.00;;;9.90;93.84
13068;BME280;6600;51.362;6.686;2024-01-30T04:54:55;102207.81;;;9.88;94.34
13068;BME280;6600;51.362;6.686;2024-01-30T04:57:20;102209.16;;;9.92;94.29
13068;BME280;6600;51.362;6.686;2024-01-30T04:59:45;102212.47;;;9.94;94.40
13068;BME280;6600;51.362;6.686;2024-01-30T05:02:11;102206.84;;;9.81;94.40
13068;BME280;6600;51.362;6.686;2024-01-30T05:04:36;102205.78;;;9.90;94.80
13068;BME280;6600;51.362;6.686;2024-01-30T05:07:02;102201.28;;;9.90;94.81
13068;BME280;6600;51.362;6.686;2024-01-30T05:09:27;102202.38;;;10.04;94.63
13068;BME280;6600;51.362;6.686;2024-01-30T05:11:53;102200.28;;;9.91;94.53
13068;BME280;6600;51.362;6.686;2024-01-30T05:14:18;102198.09;;;9.95;94.56
13068;BME280;6600;51.362;6.686;2024-01-30T05:16:44;102200.44;;;9.90;94.54
13068;BME280;6600;51.362;6.686;2024-01-30T05:19:13;102191.66;;;10.04;94.34
13068;BME280;6600;51.362;6.686;2024-01-30T05:21:38;102189.41;;;9.93;94.50
13068;BME280;6600;51.362;6.686;2024-01-30T05:24:03;102199.97;;;9.86;94.42
13068;BME280;6600;51.362;6.686;2024-01-30T05:26:29;102192.13;;;9.85;94.71
13068;BME280;6600;51.362;6.686;2024-01-30T05:28:55;102200.31;;;9.83;94.13
13068;BME280;6600;51.362;6.686;2024-01-30T05:31:20;102195.78;;;9.84;94.41
13068;BME280;6600;51.362;6.686;2024-01-30T05:33:46;102197.47;;;9.85;94.50
13068;BME280;6600;51.362;6.686;2024-01-30T05:36:12;102193.34;;;9.66;95.41
13068;BME280;6600;51.362;6.686;2024-01-30T05:38:38;102193.31;;;9.82;94.92
13068;BME280;6600;51.362;6.686;2024-01-30T05:41:04;102190.09;;;9.87;94.76
13068;BME280;6600;51.362;6.686;2024-01-30T05:43:29;102191.84;;;9.72;94.84
13068;BME280;6600;51.362;6.686;2024-01-30T05:45:54;102193.16;;;9.76;95.16
13068;BME280;6600;51.362;6.686;2024-01-30T05:48:19;102182.31;;;9.69;95.04
13068;BME280;6600;51.362;6.686;2024-01-30T05:50:45;102186.84;;;9.69;95.42
13068;BME280;6600;51.362;6.686;2024-01-30T05:53:10;102184.47;;;9.74;94.97
13068;BME280;6600;51.362;6.686;2024-01-30T05:55:36;102175.88;;;9.86;94.39
13068;BME280;6600;51.362;6.686;2024-01-30T05:58:01;102180.78;;;9.75;94.76
13068;BME280;6600;51.362;6.686;2024-01-30T06:00:26;102172.91;;;9.73;94.93
13068;BME280;6600;51.362;6.686;2024-01-30T06:02:52;102180.78;;;9.75;95.07
13068;BME280;6600;51.362;6.686;2024-01-30T06:05:17;102180.41;;;9.86;94.56
13068;BME280;6600;51.362;6.686;2024-01-30T06:07:42;102186.09;;;9.83;94.62
13068;BME280;6600;51.362;6.686;2024-01-30T06:10:08;102188.44;;;9.86;94.55
13068;BME280;6600;51.362;6.686;2024-01-30T06:12:34;102184.06;;;9.93;94.35
13068;BME280;6600;51.362;6.686;2024-01-30T06:15:00;102180.19;;;9.95;94.25
13068;BME280;6600;51.362;6.686;2024-01-30T06:17:25;102175.34;;;9.91;94.33
13068;BME280;6600;51.362;6.686;2024-01-30T06:19:50;102184.66;;;10.03;93.98
13068;BME280;6600;51.362;6.686;2024-01-30T06:22:16;102184.38;;;9.90;94.72
13068;BME280;6600;51.362;6.686;2024-01-30T06:24:41;102181.31;;;10.01;94.74
13068;BME280;6600;51.362;6.686;2024-01-30T06:27:07;102173.47;;;9.99;94.62
13068;BME280;6600;51.362;6.686;2024-01-30T06:29:32;102175.91;;;10.09;94.09
13068;BME280;6600;51.362;6.686;2024-01-30T06:31:57;102183.28;;;10.07;93.97
13068;BME280;6600;51.362;6.686;2024-01-30T06:34:23;102177.56;;;10.18;93.72
13068;BME280;6600;51.362;6.686;2024-01-30T06:36:48;102177.91;;;10.15;93.51
13068;BME280;6600;51.362;6.686;2024-01-30T06:39:13;102173.03;;;10.10;93.77
13068;BME280;6600;51.362;6.686;2024-01-30T06:41:39;102172.28;;;10.02;94.25
13068;BME280;6600;51.362;6.686;2024-01-30T06:44:04;102180.00;;;9.97;94.17
13068;BME280;6600;51.362;6.686;2024-01-30T06:46:31;102185.63;;;10.10;94.02
13068;BME280;6600;51.362;6.686;2024-01-30T06:48:57;102185.00;;;10.00;94.18
13068;BME280;6600;51.362;6.686;2024-01-30T06:51:23;102195.06;;;9.98;94.23
13068;BME280;6600;51.362;6.686;2024-01-30T06:53:48;102197.38;;;10.01;94.08
13068;BME280;6600;51.362;6.686;2024-01-30T06:56:13;102196.34;;;10.10;93.90
13068;BME280;6600;51.362;6.686;2024-01-30T06:58:39;102197.72;;;9.98;94.31
13068;BME280;6600;51.362;6.686;2024-01-30T07:01:04;102199.91;;;10.02;94.59
13068;BME280;6600;51.362;6.686;2024-01-30T07:03:30;102199.19;;;10.08;94.48
13068;BME280;6600;51.362;6.686;2024-01-30T07:05:55;102195.66;;;10.16;94.18
13068;BME280;6600;51.362;6.686;2024-01-30T07:08:20;102202.03;;;10.07;94.07
13068;BME280;6600;51.362;6.686;2024-01-30T07:10:46;102198.56;;;9.98;93.87
13068;BME280;6600;51.362;6.686;2024-01-30T07:13:12;102197.38;;;10.01;94.59
13068;BME280;6600;51.362;6.686;2024-01-30T07:15:38;102200.66;;;10.19;93.74
13068;BME280;6600;51.362;6.686;2024-01-30T07:18:04;102189.59;;;10.22;93.61
13068;BME280;6600;51.362;6.686;2024-01-30T07:20:30;102202.03;;;10.07;93.82
13068;BME280;6600;51.362;6.686;2024-01-30T07:22:57;102203.34;;;10.11;93.98
13068;BME280;6600;51.362;6.686;2024-01-30T07:25:23;102207.88;;;10.10;94.26
13068;BME280;6600;51.362;6.686;2024-01-30T07:27:55;102212.44;;;10.02;93.97
13068;BME280;6600;51.362;6.686;2024-01-30T07:30:20;102215.53;;;10.22;93.87
13068;BME280;6600;51.362;6.686;2024-01-30T07:32:46;102211.00;;;9.91;94.25
13068;BME280;6600;51.362;6.686;2024-01-30T07:35:12;102213.75;;;10.14;94.42
13068;BME280;6600;51.362;6.686;2024-01-30T07:37:38;102224.59;;;10.12;94.09
13068;BME280;6600;51.362;6.686;2024-01-30T07:40:03;102236.13;;;10.21;94.18
13068;BME280;6600;51.362;6.686;2024-01-30T07:42:29;102222.34;;;10.32;93.73
13068;BME280;6600;51.362;6.686;2024-01-30T07:44:54;102236.50;;;10.18;93.87
13068;BME280;6600;51.362;6.686;2024-01-30T07:47:19;102236.50;;;10.18;94.31
13068;BME280;6600;51.362;6.686;2024-01-30T07:49:45;102237.69;;;10.38;94.23
13068;BME280;6600;51.362;6.686;2024-01-30T07:52:10;102234.50;;;10.43;93.75
13068;BME280;6600;51.362;6.686;2024-01-30T07:54:48;102237.41;;;10.56;94.22
13068;BME280;6600;51.362;6.686;2024-01-30T07:57:14;102236.66;;;10.47;93.63
13068;BME280;6600;51.362;6.686;2024-01-30T07:59:39;102233.38;;;10.37;93.50
13068;BME280;6600;51.362;6.686;2024-01-30T08:02:06;102241.94;;;10.55;93.44
13068;BME280;6600;51.362;6.686;2024-01-30T08:04:32;102231.53;;;10.60;93.40
13068;BME280;6600;51.362;6.686;2024-01-30T08:06:57;102246.41;;;10.63;93.05
13068;BME280;6600;51.362;6.686;2024-01-30T08:09:23;102249.63;;;10.36;93.48
13068;BME280;6600;51.362;6.686;2024-01-30T08:11:48;102249.78;;;10.65;93.30
13068;BME280;6600;51.362;6.686;2024-01-30T08:14:13;102255.66;;;10.60;93.12
13068;BME280;6600;51.362;6.686;2024-01-30T08:16:39;102257.63;;;10.67;93.13
13068;BME280;6600;51.362;6.686;2024-01-30T08:19:04;102248.56;;;10.68;92.95
13068;BME280;6600;51.362;6.686;2024-01-30T08:21:30;102255.16;;;10.80;92.71
13068;BME280;6600;51.362;6.686;2024-01-30T08:23:55;102258.47;;;10.67;93.04
13068;BME280;6600;51.362;6.686;2024-01-30T08:26:20;102260.34;;;10.58;93.09
13068;BME280;6600;51.362;6.686;2024-01-30T08:28:46;102255.94;;;10.65;92.76
13068;BME280;6600;51.362;6.686;2024-01-30T08:31:11;102260.25;;;10.75;92.71
13068;BME280;6600;51.362;6.686;2024-01-30T08:33:39;102251.53;;;10.73;92.57
13068;BME280;6600;51.362;6.686;2024-01-30T08:36:05;102251.34;;;10.97;92.56
13068;BME280;6600;51.362;6.686;2024-01-30T08:38:30;102262.44;;;10.94;92.03
13068;BME280;6600;51.362;6.686;2024-01-30T08:40:56;102253.44;;;11.09;91.74
13068;BME280;6600;51.362;6.686;2024-01-30T08:43:21;102262.19;;;11.03;91.78
13068;BME280;6600;51.362;6.686;2024-01-30T08:45:46;102273.09;;;11.02;91.99
13068;BME280;6600;51.362;6.686;2024-01-30T08:48:12;102265.63;;;11.12;91.77
13068;BME280;6600;51.362;6.686;2024-01-30T08:50:37;102258.69;;;11.18;91.42
13068;BME280;6600;51.362;6.686;2024-01-30T08:53:02;102265.22;;;11.23;91.32
13068;BME280;6600;51.362;6.686;2024-01-30T08:55:28;102271.63;;;11.14;91.78
13068;BME280;6600;51.362;6.686;2024-01-30T08:57:53;102266.50;;;11.27;91.52
13068;BME280;6600;51.362;6.686;2024-01-30T09:00:18;102276.09;;;11.22;91.45
13068;BME280;6600;51.362;6.686;2024-01-30T09:02:44;102280.56;;;11.29;91.68
13068;BME280;6600;51.362;6.686;2024-01-30T09:05:10;102279.56;;;11.45;91.26
13068;BME280;6600;51.362;6.686;2024-01-30T09:07:35;102289.81;;;11.27;90.83
13068;BME280;6600;51.362;6.686;2024-01-30T09:10:00;102286.31;;;11.26;90.48
13068;BME280;6600;51.362;6.686;2024-01-30T09:12:26;102294.31;;;11.11;91.16
13068;BME280;6600;51.362;6.686;2024-01-30T09:14:51;102298.84;;;11.11;90.79
13068;BME280;6600;51.362;6.686;2024-01-30T09:17:16;102295.63;;;11.15;91.35
13068;BME280;6600;51.362;6.686;2024-01-30T09:19:42;102297.88;;;11.04;91.70
13068;BME280;6600;51.362;6.686;2024-01-30T09:22:07;102295.50;;;11.09;91.26
13068;BME280;6600;51.362;6.686;2024-01-30T09:24:32;102302.03;;;11.29;91.43
13068;BME280;6600;51.362;6.686;2024-01-30T09:26:58;102284.56;;;11.33;91.64
13068;BME280;6600;51.362;6.686;2024-01-30T09:29:23;102293.94;;;11.37;91.14
13068;BME280;6600;51.362;6.686;2024-01-30T09:31:49;102291.31;;;11.29;91.57
13068;BME280;6600;51.362;6.686;2024-01-30T09:34:14;102293.81;;;11.45;91.22
13068;BME280;6600;51.362;6.686;2024-01-30T09:36:39;102294.56;;;11.39;90.84
13068;BME280;6600;51.362;6.686;2024-01-30T09:39:05;102296.41;;;11.39;90.87
13068;BME280;6600;51.362;6.686;2024-01-30T09:41:49;102287.06;;;11.49;91.16
13068;BME280;6600;51.362;6.686;2024-01-30T09:44:17;102293.69;;;11.61;90.35
13068;BME280;6600;51.362;6.686;2024-01-30T09:46:45;102295.97;;;11.50;90.31
13068;BME280;6600;51.362;6.686;2024-01-30T09:49:12;102298.47;;;11.66;90.38
13068;BME280;6600;51.362;6.686;2024-01-30T09:51:38;102300.16;;;11.67;90.52
13068;BME280;6600;51.362;6.686;2024-01-30T09:54:03;102293.38;;;11.56;91.22
13068;BME280;6600;51.362;6.686;2024-01-30T09:56:29;102297.63;;;11.65;90.86
13068;BME280;6600;51.362;6.686;2024-01-30T09:58:54;102305.16;;;11.70;90.34
13068;BME280;6600;51.362;6.686;2024-01-30T10:01:20;102295.84;;;11.81;90.58
13068;BME280;6600;51.362;6.686;2024-01-30T10:03:45;102306.38;;;11.97;89.81
13068;BME280;6600;51.362;6.686;2024-01-30T10:06:11;102297.03;;;12.07;89.49
13068;BME280;6600;51.362;6.686;2024-01-30T10:08:37;102301.56;;;12.07;88.95
13068;BME280;6600;51.362;6.686;2024-01-30T10:11:03;102297.78;;;12.01;89.06
13068;BME280;6600;51.362;6.686;2024-01-30T10:13:28;102295.63;;;11.97;89.20
13068;BME280;6600;51.362;6.686;2024-01-30T10:15:54;102306.22;;;12.13;89.20
13068;BME280;6600;51.362;6.686;2024-01-30T10:18:20;102296.59;;;11.89;89.36
13068;BME280;6600;51.362;6.686;2024-01-30T10:20:47;102291.19;;;12.04;88.97
13068;BME280;6600;51.362;6.686;2024-01-30T10:23:12;102291.03;;;11.91;89.39
13068;BME280;6600;51.362;6.686;2024-01-30T10:25:38;102299.16;;;11.83;90.20
13068;BME280;6600;51.362;6.686;2024-01-30T10:28:04;102302.13;;;11.88;89.71
13068;BME280;6600;51.362;6.686;2024-01-30T10:30:29;102311.66;;;12.05;89.28
13068;BME280;6600;51.362;6.686;2024-01-30T10:32:54;102312.31;;;12.22;88.70
13068;BME280;6600;51.362;6.686;2024-01-30T10:35:20;102321.50;;;12.27;88.79
13068;BME280;6600;51.362;6.686;2024-01-30T10:37:47;102313.56;;;12.40;88.61
13068;BME280;6600;51.362;6.686;2024-01-30T10:40:13;102307.81;;;12.43;88.21
13068;BME280;6600;51.362;6.686;2024-01-30T10:42:42;102312.81;;;12.46;88.30
13068;BME280;6600;51.362;6.686;2024-01-30T10:45:12;102309.06;;;12.62;87.98
13068;BME280;6600;51.362;6.686;2024-01-30T10:47:40;102308.91;;;12.49;87.85
13068;BME280;6600;51.362;6.686;2024-01-30T10:50:08;102321.50;;;12.48;88.21
13068;BME280;6600;51.362;6.686;2024-01-30T10:52:34;102324.47;;;12.53;88.17
13068;BME280;6600;51.362;6.686;2024-01-30T10:55:00;102321.50;;;12.48;88.07
13068;BME280;6600;51.362;6.686;2024-01-30T10:57:26;102319.50;;;12.50;88.30
13068;BME280;6600;51.362;6.686;2024-01-30T10:59:59;102314.78;;;12.74;87.73
13068;BME280;6600;51.362;6.686;2024-01-30T11:02:25;102311.91;;;12.75;87.40
13068;BME280;6600;51.362;6.686;2024-01-30T11:04:56;102317.75;;;12.79;87.57
13068;BME280;6600;51.362;6.686;2024-01-30T11:07:27;102306.72;;;12.95;87.49
13068;BME280;6600;51.362;6.686;2024-01-30T11:09:54;102307.88;;;12.86;87.07
13068;BME280;6600;51.362;6.686;2024-01-30T11:12:28;102310.75;;;12.84;87.25
13068;BME280;6600;51.362;6.686;2024-01-30T11:15:06;102318.72;;;12.92;87.05
13068;BME280;6600;51.362;6.686;2024-01-30T11:20:26;102317.34;;;12.82;87.91
13068;BME280;6600;51.362;6.686;2024-01-30T11:22:53;102318.09;;;12.76;88.33
13068;BME280;6600;51.362;6.686;2024-01-30T11:25:20;102315.28;;;12.84;88.28
13068;BME280;6600;51.362;6.686;2024-01-30T11:27:46;102314.97;;;12.93;87.69
13068;BME280;6600;51.362;6.686;2024-01-30T11:30:27;102322.22;;;12.93;87.69
13068;BME280;6600;51.362;6.686;2024-01-30T11:33:07;102314.00;;;13.01;87.30
13068;BME280;6600;51.362;6.686;2024-01-30T11:38:00;102305.44;;;12.91;87.71
13068;BME280;6600;51.362;6.686;2024-01-30T11:40:30;102310.03;;;12.97;88.26
13068;BME280;6600;51.362;6.686;2024-01-30T11:42:56;102309.81;;;13.13;88.68
13068;BME280;6600;51.362;6.686;2024-01-30T11:45:23;102307.78;;;13.00;89.01
13068;BME280;6600;51.362;6.686;2024-01-30T11:47:48;102313.19;;;13.22;88.66
13068;BME280;6600;51.362;6.686;2024-01-30T11:50:14;102309.66;;;13.21;88.13
13068;BME280;6600;51.362;6.686;2024-01-30T11:52:40;102305.34;;;13.20;88.31
13068;BME280;6600;51.362;6.686;2024-01-30T11:55:06;102306.81;;;13.23;88.05
13068;BME280;6600;51.362;6.686;2024-01-30T11:57:33;102303.66;;;13.19;87.92
13068;BME280;6600;51.362;6.686;2024-01-30T12:00:00;102303.72;;;13.26;87.89
13068;BME280;6600;51.362;6.686;2024-01-30T12:02:25;102300.44;;;13.30;87.79
13068;BME280;6600;51.362;6.686;2024-01-30T12:04:51;102289.94;;;13.14;88.55
13068;BME280;6600;51.362;6.686;2024-01-30T12:07:16;102300.97;;;13.19;88.67
13068;BME280;6600;51.362;6.686;2024-01-30T12:09:42;102290.44;;;13.03;89.04
13068;BME280;6600;51.362;6.686;2024-01-30T12:12:07;102290.81;;;13.21;88.62
13068;BME280;6600;51.362;6.686;2024-01-30T12:14:38;102302.81;;;13.19;88.87
13068;BME280;6600;51.362;6.686;2024-01-30T12:17:04;102291.97;;;13.33;89.04
13068;BME280;6600;51.362;6.686;2024-01-30T12:19:29;102290.44;;;13.24;89.23
13068;BME280;6600;51.362;6.686;2024-01-30T12:21:56;102287.72;;;13.45;88.74
13068;BME280;6600;51.362;6.686;2024-01-30T12:24:22;102287.63;;;13.32;89.58
13068;BME280;6600;51.362;6.686;2024-01-30T12:26:47;102293.28;;;13.16;90.67
13068;BME280;6600;51.362;6.686;2024-01-30T12:29:14;102294.00;;;13.31;90.29
13068;BME280;6600;51.362;6.686;2024-01-30T12:31:42;102289.13;;;13.41;90.06
13068;BME280;6600;51.362;6.686;2024-01-30T12:34:07;102291.72;;;13.28;90.30
13068;BME280;6600;51.362;6.686;2024-01-30T12:36:32;102294.66;;;13.33;90.47
13068;BME280;6600;51.362;6.686;2024-01-30T12:38:57;102288.09;;;13.42;90.49
13068;BME280;6600;51.362;6.686;2024-01-30T12:41:23;102288.91;;;13.36;90.52
13068;BME280;6600;51.362;6.686;2024-01-30T12:43:53;102288.59;;;13.52;90.28
13068;BME280;6600;51.362;6.686;2024-01-30T12:46:19;102292.47;;;13.43;90.53
13068;BME280;6600;51.362;6.686;2024-01-30T12:48:44;102293.94;;;13.46;90.79
13068;BME280;6600;51.362;6.686;2024-01-30T12:51:09;102292.75;;;13.55;90.84
13068;BME280;6600;51.362;6.686;2024-01-30T12:53:35;102296.72;;;13.31;92.06
13068;BME280;6600;51.362;6.686;2024-01-30T12:56:00;102297.50;;;13.53;91.93
13068;BME280;6600;51.362;6.686;2024-01-30T12:58:25;102300.25;;;13.59;91.78
13068;BME280;6600;51.362;6.686;2024-01-30T13:00:51;102295.66;;;13.53;92.20